Portada
METAR-TAF:

METAR-TAF

Aeropuertos :

Orange, Francia

latitud: 44-08N, longitud: 004-50E, altitud: 60 m

Observación

El informe se hizo hace 37 minutos, a las 01:30 UTC
Viento 4 kt del oeste-noroeste
Temperatura 23°C
Humedad 57%
Presión 1013 hPa
Visibilidad 10 km o más
sin nubes por debajo de 1500 m y sin presencia de cumulonimbus.

METAR: LFMO 190130Z AUTO 30004KT CAVOK 23/14 Q1013 NOSIG

Hora: 04:07 (02:07 UTC)

Pronóstico

El informe se hizo hace 6 horas y 7 minutos, a las 20:00 UTC
Pronóstico válido del 18 a las 21 UTC al 19 a las 21 UTC
Viento 5 kt del suroeste
Visibilidad 10 km o más
sin nubes por debajo de 1500 m y sin presencia de cumulonimbus.
Probabilidad 30% :
Temporalmente
del 18 a las 21 UTC al 18 a las 22 UTC
Visibilidad: 5000 m
Nubes dispersas a una altura de 6000 ft, Cumulonimbus.
chaparrones de lluvia

TAF: LFMO 182000Z 1821/1921 22005KT CAVOK PROB30 TEMPO 1821/1822 5000 SHRA SCT060CB

Observaciones y pronósticos meteorológicos de más de 4000 aeropuertos (mensajes METAR y TAF).

Los puntos amarillos y rojos representan las estaciones disponibles.

Ponga el ratón en el punto deseado para ver el nombre de la estación.

Haga clic para ver las observaciones y los pronósticos meteorológicos.

Para cambiar el mapa : haga clic en los botones verdes con una cruz de color negro para hacer un zoom, en el botón verde con un guión para alejar o en las flechas verdes para mapas adyacentes.


METAR-TAF: